sensor_id;sensor_type;location;lat;lon;timestamp;pressure;altitude;pressure_sealevel;temperature;humidity
70916;BME280;58557;50.982;-3.222;2022-09-14T00:01:19;100162.25;;;18.49;60.23
70916;BME280;58557;50.982;-3.222;2022-09-14T00:03:45;100156.52;;;18.67;59.10
70916;BME280;58557;50.982;-3.222;2022-09-14T00:06:07;100152.17;;;18.19;60.79
70916;BME280;58557;50.982;-3.222;2022-09-14T00:08:31;100147.90;;;18.41;60.96
70916;BME280;58557;50.982;-3.222;2022-09-14T00:11:04;100143.76;;;18.90;59.53
70916;BME280;58557;50.982;-3.222;2022-09-14T00:13:22;100140.32;;;19.01;58.93
70916;BME280;58557;50.982;-3.222;2022-09-14T00:15:52;100141.85;;;18.80;59.13
70916;BME280;58557;50.982;-3.222;2022-09-14T00:18:13;100146.25;;;18.74;60.00
70916;BME280;58557;50.982;-3.222;2022-09-14T00:20:43;100143.36;;;18.12;60.47
70916;BME280;58557;50.982;-3.222;2022-09-14T00:23:04;100135.41;;;19.12;58.70
70916;BME280;58557;50.982;-3.222;2022-09-14T00:25:29;100132.43;;;18.79;60.03
70916;BME280;58557;50.982;-3.222;2022-09-14T00:27:55;100126.71;;;18.87;59.64
70916;BME280;58557;50.982;-3.222;2022-09-14T00:30:25;100125.69;;;18.20;61.77
70916;BME280;58557;50.982;-3.222;2022-09-14T00:32:45;100120.44;;;18.69;60.94
70916;BME280;58557;50.982;-3.222;2022-09-14T00:35:16;100116.05;;;18.69;60.56
70916;BME280;58557;50.982;-3.222;2022-09-14T00:37:41;100114.22;;;18.47;61.18
70916;BME280;58557;50.982;-3.222;2022-09-14T00:40:01;100111.74;;;18.53;60.89
70916;BME280;58557;50.982;-3.222;2022-09-14T00:42:26;100109.31;;;17.70;63.07
70916;BME280;58557;50.982;-3.222;2022-09-14T00:45:02;100103.48;;;17.85;63.17
70916;BME280;58557;50.982;-3.222;2022-09-14T00:47:17;100099.41;;;17.99;62.29
70916;BME280;58557;50.982;-3.222;2022-09-14T00:49:47;100095.72;;;18.15;61.25
70916;BME280;58557;50.982;-3.222;2022-09-14T00:52:15;100092.34;;;18.54;61.55
70916;BME280;58557;50.982;-3.222;2022-09-14T00:54:34;100090.04;;;17.75;62.71
70916;BME280;58557;50.982;-3.222;2022-09-14T00:57:01;100083.09;;;18.40;60.98
70916;BME280;58557;50.982;-3.222;2022-09-14T00:59:31;100088.27;;;18.30;61.39
70916;BME280;58557;50.982;-3.222;2022-09-14T01:01:49;100084.98;;;18.56;61.35
70916;BME280;58557;50.982;-3.222;2022-09-14T01:04:15;100078.00;;;18.55;60.90
70916;BME280;58557;50.982;-3.222;2022-09-14T01:06:52;100080.28;;;17.78;63.08
70916;BME280;58557;50.982;-3.222;2022-09-14T01:09:18;100082.26;;;17.80;63.11
70916;BME280;58557;50.982;-3.222;2022-09-14T01:11:45;100085.26;;;17.11;65.05
70916;BME280;58557;50.982;-3.222;2022-09-14T01:14:02;100085.13;;;17.77;63.01
70916;BME280;58557;50.982;-3.222;2022-09-14T01:16:25;100084.12;;;17.95;63.51
70916;BME280;58557;50.982;-3.222;2022-09-14T01:18:52;100082.93;;;18.16;62.58
70916;BME280;58557;50.982;-3.222;2022-09-14T01:21:15;100081.59;;;18.25;62.72
70916;BME280;58557;50.982;-3.222;2022-09-14T01:23:46;100080.91;;;17.91;62.93
70916;BME280;58557;50.982;-3.222;2022-09-14T01:28:34;100070.03;;;17.95;62.63
70916;BME280;58557;50.982;-3.222;2022-09-14T01:30:55;100068.86;;;18.14;62.16
70916;BME280;58557;50.982;-3.222;2022-09-14T01:33:23;100070.38;;;18.24;62.67
70916;BME280;58557;50.982;-3.222;2022-09-14T01:35:46;100072.02;;;18.08;62.17
70916;BME280;58557;50.982;-3.222;2022-09-14T01:38:13;100069.81;;;17.88;62.52
70916;BME280;58557;50.982;-3.222;2022-09-14T01:40:37;100069.59;;;18.34;62.38
70916;BME280;58557;50.982;-3.222;2022-09-14T01:43:03;100060.63;;;18.38;61.15
70916;BME280;58557;50.982;-3.222;2022-09-14T01:45:28;100060.94;;;18.19;60.29
70916;BME280;58557;50.982;-3.222;2022-09-14T01:47:54;100060.80;;;18.79;60.63
70916;BME280;58557;50.982;-3.222;2022-09-14T01:50:24;100058.24;;;18.49;61.08
70916;BME280;58557;50.982;-3.222;2022-09-14T01:52:44;100065.08;;;18.27;62.56
70916;BME280;58557;50.982;-3.222;2022-09-14T01:55:12;100059.15;;;18.45;61.22
70916;BME280;58557;50.982;-3.222;2022-09-14T01:57:38;100066.28;;;18.32;61.70
70916;BME280;58557;50.982;-3.222;2022-09-14T02:00:04;100068.02;;;17.95;62.73
70916;BME280;58557;50.982;-3.222;2022-09-14T02:02:27;100066.47;;;18.14;62.95
70916;BME280;58557;50.982;-3.222;2022-09-14T02:04:56;100063.14;;;18.12;62.84
70916;BME280;58557;50.982;-3.222;2022-09-14T02:07:17;100059.94;;;18.29;62.21
70916;BME280;58557;50.982;-3.222;2022-09-14T02:09:46;100049.81;;;18.61;60.92
70916;BME280;58557;50.982;-3.222;2022-09-14T02:12:06;100055.10;;;18.06;61.85
70916;BME280;58557;50.982;-3.222;2022-09-14T02:14:36;100056.42;;;18.07;61.98
70916;BME280;58557;50.982;-3.222;2022-09-14T02:17:02;100059.44;;;18.15;61.82
70916;BME280;58557;50.982;-3.222;2022-09-14T02:19:31;100054.98;;;18.06;62.89
70916;BME280;58557;50.982;-3.222;2022-09-14T02:21:47;100054.99;;;18.14;62.30
70916;BME280;58557;50.982;-3.222;2022-09-14T02:24:18;100054.01;;;17.54;64.33
70916;BME280;58557;50.982;-3.222;2022-09-14T02:26:43;100054.48;;;17.58;64.59
70916;BME280;58557;50.982;-3.222;2022-09-14T02:29:05;100050.93;;;17.18;65.58
70916;BME280;58557;50.982;-3.222;2022-09-14T02:31:37;100051.40;;;17.58;65.82
70916;BME280;58557;50.982;-3.222;2022-09-14T02:34:04;100049.83;;;17.04;66.47
70916;BME280;58557;50.982;-3.222;2022-09-14T02:36:27;100048.78;;;17.64;63.63
70916;BME280;58557;50.982;-3.222;2022-09-14T02:38:51;100050.07;;;17.63;63.76
70916;BME280;58557;50.982;-3.222;2022-09-14T02:41:16;100051.85;;;17.76;63.54
70916;BME280;58557;50.982;-3.222;2022-09-14T02:43:44;100052.36;;;18.30;62.25
70916;BME280;58557;50.982;-3.222;2022-09-14T02:46:08;100056.48;;;18.46;62.44
70916;BME280;58557;50.982;-3.222;2022-09-14T02:48:38;100054.86;;;17.74;63.16
70916;BME280;58557;50.982;-3.222;2022-09-14T02:50:59;100052.05;;;17.48;64.07
70916;BME280;58557;50.982;-3.222;2022-09-14T02:53:25;100048.71;;;17.72;64.10
70916;BME280;58557;50.982;-3.222;2022-09-14T02:55:47;100047.74;;;18.14;63.04
70916;BME280;58557;50.982;-3.222;2022-09-14T02:58:12;100047.00;;;17.63;63.09
70916;BME280;58557;50.982;-3.222;2022-09-14T03:00:38;100046.91;;;17.13;65.63
70916;BME280;58557;50.982;-3.222;2022-09-14T03:03:01;100043.39;;;17.41;65.16
70916;BME280;58557;50.982;-3.222;2022-09-14T03:05:26;100042.18;;;17.37;65.08
70916;BME280;58557;50.982;-3.222;2022-09-14T03:07:57;100040.24;;;17.72;64.01
70916;BME280;58557;50.982;-3.222;2022-09-14T03:10:17;100040.19;;;18.01;63.44
70916;BME280;58557;50.982;-3.222;2022-09-14T03:12:43;100039.50;;;17.75;63.43
70916;BME280;58557;50.982;-3.222;2022-09-14T03:15:09;100035.66;;;18.02;63.31
70916;BME280;58557;50.982;-3.222;2022-09-14T03:17:33;100036.03;;;17.36;64.74
70916;BME280;58557;50.982;-3.222;2022-09-14T03:19:58;100032.42;;;17.38;65.05
70916;BME280;58557;50.982;-3.222;2022-09-14T03:22:24;100032.60;;;17.45;64.67
70916;BME280;58557;50.982;-3.222;2022-09-14T03:24:49;100031.71;;;17.82;63.20
70916;BME280;58557;50.982;-3.222;2022-09-14T03:27:16;100025.68;;;17.34;64.95
70916;BME280;58557;50.982;-3.222;2022-09-14T03:29:40;100023.45;;;17.20;65.15
70916;BME280;58557;50.982;-3.222;2022-09-14T03:32:10;100019.90;;;17.12;65.69
70916;BME280;58557;50.982;-3.222;2022-09-14T03:34:31;100017.40;;;17.06;65.97
70916;BME280;58557;50.982;-3.222;2022-09-14T03:36:56;100018.86;;;17.17;67.31
70916;BME280;58557;50.982;-3.222;2022-09-14T03:39:21;100020.74;;;17.18;65.69
70916;BME280;58557;50.982;-3.222;2022-09-14T03:41:47;100019.66;;;16.91;65.56
70916;BME280;58557;50.982;-3.222;2022-09-14T03:44:17;100022.64;;;16.98;67.86
70916;BME280;58557;50.982;-3.222;2022-09-14T03:46:38;100022.26;;;16.71;68.72
70916;BME280;58557;50.982;-3.222;2022-09-14T03:49:03;100023.94;;;16.86;68.66
70916;BME280;58557;50.982;-3.222;2022-09-14T03:51:34;100025.81;;;17.00;67.79
70916;BME280;58557;50.982;-3.222;2022-09-14T03:53:59;100028.38;;;17.09;67.18
70916;BME280;58557;50.982;-3.222;2022-09-14T03:56:21;100021.07;;;16.50;68.33
70916;BME280;58557;50.982;-3.222;2022-09-14T03:58:46;100025.94;;;16.70;68.16
70916;BME280;58557;50.982;-3.222;2022-09-14T04:01:17;100026.05;;;16.85;67.09
70916;BME280;58557;50.982;-3.222;2022-09-14T04:03:36;100026.70;;;16.90;67.21
70916;BME280;58557;50.982;-3.222;2022-09-14T04:06:07;100031.00;;;17.26;65.94
70916;BME280;58557;50.982;-3.222;2022-09-14T04:08:27;100032.73;;;17.14;65.57
70916;BME280;58557;50.982;-3.222;2022-09-14T04:10:52;100032.25;;;17.70;65.08
70916;BME280;58557;50.982;-3.222;2022-09-14T04:13:19;100028.00;;;18.29;62.65
70916;BME280;58557;50.982;-3.222;2022-09-14T04:15:43;100033.25;;;17.54;62.63
70916;BME280;58557;50.982;-3.222;2022-09-14T04:18:13;100027.46;;;18.53;61.20
70916;BME280;58557;50.982;-3.222;2022-09-14T04:20:33;100029.72;;;18.40;61.18
70916;BME280;58557;50.982;-3.222;2022-09-14T04:23:01;100031.61;;;18.59;60.19
70916;BME280;58557;50.982;-3.222;2022-09-14T04:25:25;100031.91;;;18.58;59.51
70916;BME280;58557;50.982;-3.222;2022-09-14T04:27:55;100032.02;;;18.46;59.40
70916;BME280;58557;50.982;-3.222;2022-09-14T04:30:15;100033.32;;;19.44;57.90
70916;BME280;58557;50.982;-3.222;2022-09-14T04:32:46;100032.08;;;19.54;57.38
70916;BME280;58557;50.982;-3.222;2022-09-14T04:35:07;100031.50;;;19.03;57.95
70916;BME280;58557;50.982;-3.222;2022-09-14T04:37:31;100034.05;;;18.70;59.25
70916;BME280;58557;50.982;-3.222;2022-09-14T04:39:58;100034.20;;;18.82;58.56
70916;BME280;58557;50.982;-3.222;2022-09-14T04:42:22;100035.69;;;18.59;58.44
70916;BME280;58557;50.982;-3.222;2022-09-14T04:44:53;100035.53;;;18.98;58.47
70916;BME280;58557;50.982;-3.222;2022-09-14T04:47:13;100036.18;;;18.65;58.38
70916;BME280;58557;50.982;-3.222;2022-09-14T04:49:39;100034.37;;;18.76;58.69
70916;BME280;58557;50.982;-3.222;2022-09-14T04:52:04;100031.17;;;18.29;59.21
70916;BME280;58557;50.982;-3.222;2022-09-14T04:54:30;100029.68;;;18.31;58.88
70916;BME280;58557;50.982;-3.222;2022-09-14T04:56:57;100032.02;;;18.95;57.84
70916;BME280;58557;50.982;-3.222;2022-09-14T04:59:25;100032.90;;;19.19;57.04
70916;BME280;58557;50.982;-3.222;2022-09-14T05:01:46;100031.45;;;19.31;56.15
70916;BME280;58557;50.982;-3.222;2022-09-14T05:04:11;100029.53;;;19.40;56.44
70916;BME280;58557;50.982;-3.222;2022-09-14T05:06:42;100028.41;;;19.68;55.18
70916;BME280;58557;50.982;-3.222;2022-09-14T05:09:12;100025.85;;;19.25;56.22
70916;BME280;58557;50.982;-3.222;2022-09-14T05:11:34;100026.39;;;19.06;57.06
70916;BME280;58557;50.982;-3.222;2022-09-14T05:13:59;100024.17;;;18.73;57.11
70916;BME280;58557;50.982;-3.222;2022-09-14T05:16:25;100026.50;;;18.60;58.50
70916;BME280;58557;50.982;-3.222;2022-09-14T05:18:46;100027.01;;;19.04;57.52
70916;BME280;58557;50.982;-3.222;2022-09-14T05:21:16;100026.28;;;18.40;58.84
70916;BME280;58557;50.982;-3.222;2022-09-14T05:23:40;100025.37;;;18.86;58.18
70916;BME280;58557;50.982;-3.222;2022-09-14T05:26:00;100023.84;;;19.21;56.84
70916;BME280;58557;50.982;-3.222;2022-09-14T05:28:31;100019.34;;;18.78;57.16
70916;BME280;58557;50.982;-3.222;2022-09-14T05:30:55;100017.37;;;18.20;58.66
70916;BME280;58557;50.982;-3.222;2022-09-14T05:33:15;100018.24;;;18.51;57.93
70916;BME280;58557;50.982;-3.222;2022-09-14T05:35:41;100017.92;;;17.75;58.51
70916;BME280;58557;50.982;-3.222;2022-09-14T05:38:08;100020.70;;;18.78;57.63
70916;BME280;58557;50.982;-3.222;2022-09-14T05:40:33;100022.60;;;18.43;58.20
70916;BME280;58557;50.982;-3.222;2022-09-14T05:42:58;100026.43;;;17.86;58.90
70916;BME280;58557;50.982;-3.222;2022-09-14T05:45:23;100025.52;;;18.50;57.81
70916;BME280;58557;50.982;-3.222;2022-09-14T05:47:50;100024.93;;;18.27;58.06
70916;BME280;58557;50.982;-3.222;2022-09-14T05:50:14;100023.39;;;18.38;58.15
70916;BME280;58557;50.982;-3.222;2022-09-14T05:52:39;100023.34;;;19.07;56.91
70916;BME280;58557;50.982;-3.222;2022-09-14T05:55:10;100023.92;;;18.63;56.50
70916;BME280;58557;50.982;-3.222;2022-09-14T05:57:31;100026.86;;;19.31;55.36
70916;BME280;58557;50.982;-3.222;2022-09-14T05:59:56;100025.58;;;19.02;56.16
70916;BME280;58557;50.982;-3.222;2022-09-14T06:02:26;100029.21;;;18.66;56.84
70916;BME280;58557;50.982;-3.222;2022-09-14T06:04:47;100036.77;;;19.44;55.41
70916;BME280;58557;50.982;-3.222;2022-09-14T06:07:13;100035.77;;;17.99;57.18
70916;BME280;58557;50.982;-3.222;2022-09-14T06:09:38;100039.94;;;19.13;54.99
70916;BME280;58557;50.982;-3.222;2022-09-14T06:12:08;100041.40;;;19.10;55.62
70916;BME280;58557;50.982;-3.222;2022-09-14T06:14:28;100043.05;;;17.96;58.84
70916;BME280;58557;50.982;-3.222;2022-09-14T06:16:59;100042.17;;;17.83;59.31
70916;BME280;58557;50.982;-3.222;2022-09-14T06:19:25;100044.09;;;17.73;59.87
70916;BME280;58557;50.982;-3.222;2022-09-14T06:21:45;100045.75;;;17.55;60.60
70916;BME280;58557;50.982;-3.222;2022-09-14T06:24:16;100050.02;;;17.10;62.25
70916;BME280;58557;50.982;-3.222;2022-09-14T06:26:42;100050.98;;;17.28;61.40
70916;BME280;58557;50.982;-3.222;2022-09-14T06:29:07;100051.23;;;17.04;62.38
70916;BME280;58557;50.982;-3.222;2022-09-14T06:31:33;100051.19;;;17.34;62.64
70916;BME280;58557;50.982;-3.222;2022-09-14T06:33:58;100053.39;;;17.43;61.88
70916;BME280;58557;50.982;-3.222;2022-09-14T06:36:19;100052.85;;;16.55;63.99
70916;BME280;58557;50.982;-3.222;2022-09-14T06:38:44;100052.43;;;16.56;63.29
70916;BME280;58557;50.982;-3.222;2022-09-14T06:41:11;100049.54;;;16.15;64.13
70916;BME280;58557;50.982;-3.222;2022-09-14T06:43:36;100047.81;;;16.27;63.58
70916;BME280;58557;50.982;-3.222;2022-09-14T06:46:01;100045.30;;;16.42;63.12
70916;BME280;58557;50.982;-3.222;2022-09-14T06:48:26;100048.42;;;17.06;61.46
70916;BME280;58557;50.982;-3.222;2022-09-14T06:50:56;100045.62;;;16.43;62.17
70916;BME280;58557;50.982;-3.222;2022-09-14T06:53:17;100049.85;;;16.23;63.66
70916;BME280;58557;50.982;-3.222;2022-09-14T06:55:42;100057.47;;;17.21;60.58
70916;BME280;58557;50.982;-3.222;2022-09-14T06:58:13;100057.72;;;18.00;59.29
70916;BME280;58557;50.982;-3.222;2022-09-14T07:00:38;100051.85;;;18.38;57.20
70916;BME280;58557;50.982;-3.222;2022-09-14T07:02:58;100048.76;;;18.53;56.68
70916;BME280;58557;50.982;-3.222;2022-09-14T07:05:29;100051.64;;;17.73;58.97
70916;BME280;58557;50.982;-3.222;2022-09-14T07:07:50;100050.91;;;18.00;57.86
70916;BME280;58557;50.982;-3.222;2022-09-14T07:10:20;100048.67;;;18.42;57.41
70916;BME280;58557;50.982;-3.222;2022-09-14T07:12:45;100058.20;;;17.35;58.63
70916;BME280;58557;50.982;-3.222;2022-09-14T07:15:07;100062.46;;;17.37;59.19
70916;BME280;58557;50.982;-3.222;2022-09-14T07:17:30;100062.49;;;18.42;56.62
70916;BME280;58557;50.982;-3.222;2022-09-14T07:19:55;100064.32;;;18.76;55.78
70916;BME280;58557;50.982;-3.222;2022-09-14T07:22:26;100060.52;;;18.43;56.87
70916;BME280;58557;50.982;-3.222;2022-09-14T07:24:46;100069.69;;;18.14;57.94
70916;BME280;58557;50.982;-3.222;2022-09-14T07:27:11;100072.26;;;17.81;58.60
70916;BME280;58557;50.982;-3.222;2022-09-14T07:29:37;100075.53;;;17.89;59.64
70916;BME280;58557;50.982;-3.222;2022-09-14T07:32:08;100075.67;;;17.34;59.61
70916;BME280;58557;50.982;-3.222;2022-09-14T07:34:29;100074.15;;;17.71;59.18
70916;BME280;58557;50.982;-3.222;2022-09-14T07:37:01;100077.01;;;17.00;61.05
70916;BME280;58557;50.982;-3.222;2022-09-14T07:39:20;100080.35;;;17.00;60.48
70916;BME280;58557;50.982;-3.222;2022-09-14T07:41:45;100082.71;;;17.21;60.79
70916;BME280;58557;50.982;-3.222;2022-09-14T07:44:14;100085.10;;;17.71;59.38
70916;BME280;58557;50.982;-3.222;2022-09-14T07:46:37;100083.66;;;17.39;60.15
70916;BME280;58557;50.982;-3.222;2022-09-14T07:49:08;100080.97;;;17.99;58.59
70916;BME280;58557;50.982;-3.222;2022-09-14T07:51:28;100076.51;;;16.61;60.87
70916;BME280;58557;50.982;-3.222;2022-09-14T07:53:52;100076.45;;;17.25;59.68
70916;BME280;58557;50.982;-3.222;2022-09-14T07:56:17;100078.49;;;17.42;59.36
70916;BME280;58557;50.982;-3.222;2022-09-14T07:58:43;100079.92;;;17.68;59.82
70916;BME280;58557;50.982;-3.222;2022-09-14T08:01:14;100080.34;;;17.17;59.74
70916;BME280;58557;50.982;-3.222;2022-09-14T08:03:34;100081.67;;;16.84;61.10
70916;BME280;58557;50.982;-3.222;2022-09-14T08:06:05;100083.98;;;17.16;60.73
70916;BME280;58557;50.982;-3.222;2022-09-14T08:08:29;100082.22;;;17.02;60.94
70916;BME280;58557;50.982;-3.222;2022-09-14T08:10:49;100082.00;;;16.31;63.50
70916;BME280;58557;50.982;-3.222;2022-09-14T08:13:15;100080.57;;;16.09;64.03
70916;BME280;58557;50.982;-3.222;2022-09-14T08:15:41;100079.14;;;16.11;64.31
70916;BME280;58557;50.982;-3.222;2022-09-14T08:18:07;100082.71;;;15.68;65.21
70916;BME280;58557;50.982;-3.222;2022-09-14T08:20:33;100085.49;;;16.15;64.36
70916;BME280;58557;50.982;-3.222;2022-09-14T08:22:58;100090.72;;;15.65;66.49
70916;BME280;58557;50.982;-3.222;2022-09-14T08:25:28;100096.71;;;15.52;67.24
70916;BME280;58557;50.982;-3.222;2022-09-14T08:27:51;100090.74;;;15.57;66.61
70916;BME280;58557;50.982;-3.222;2022-09-14T08:30:19;100090.43;;;15.63;66.18
70916;BME280;58557;50.982;-3.222;2022-09-14T08:32:39;100092.28;;;16.20;64.08
70916;BME280;58557;50.982;-3.222;2022-09-14T08:35:10;100100.23;;;15.54;66.34
70916;BME280;58557;50.982;-3.222;2022-09-14T08:37:31;100102.19;;;14.99;68.12
70916;BME280;58557;50.982;-3.222;2022-09-14T08:39:56;100104.81;;;13.72;73.27
70916;BME280;58557;50.982;-3.222;2022-09-14T08:42:22;100102.78;;;14.27;72.09
70916;BME280;58557;50.982;-3.222;2022-09-14T08:44:55;100103.10;;;14.50;72.00
70916;BME280;58557;50.982;-3.222;2022-09-14T08:47:24;100106.27;;;14.76;71.27
70916;BME280;58557;50.982;-3.222;2022-09-14T08:49:44;100104.83;;;14.29;72.93
70916;BME280;58557;50.982;-3.222;2022-09-14T08:52:03;100105.96;;;14.91;70.01
70916;BME280;58557;50.982;-3.222;2022-09-14T08:54:30;100108.72;;;15.54;68.01
70916;BME280;58557;50.982;-3.222;2022-09-14T08:57:03;100109.16;;;15.59;67.83
70916;BME280;58557;50.982;-3.222;2022-09-14T08:59:34;100107.44;;;15.98;65.75
70916;BME280;58557;50.982;-3.222;2022-09-14T09:01:53;100108.65;;;15.75;65.62
70916;BME280;58557;50.982;-3.222;2022-09-14T09:04:20;100110.30;;;15.68;66.57
70916;BME280;58557;50.982;-3.222;2022-09-14T09:06:41;100107.66;;;15.66;66.14
70916;BME280;58557;50.982;-3.222;2022-09-14T09:09:11;100106.59;;;15.69;66.27
70916;BME280;58557;50.982;-3.222;2022-09-14T09:11:26;100103.56;;;15.32;67.68
70916;BME280;58557;50.982;-3.222;2022-09-14T09:13:51;100106.57;;;16.14;65.57
70916;BME280;58557;50.982;-3.222;2022-09-14T09:16:18;100103.81;;;16.79;64.25
70916;BME280;58557;50.982;-3.222;2022-09-14T09:18:45;100105.12;;;17.15;62.75
70916;BME280;58557;50.982;-3.222;2022-09-14T09:21:12;100105.49;;;16.94;63.47
70916;BME280;58557;50.982;-3.222;2022-09-14T09:23:33;100106.94;;;16.89;64.28
70916;BME280;58557;50.982;-3.222;2022-09-14T09:26:05;100107.92;;;16.01;64.49
70916;BME280;58557;50.982;-3.222;2022-09-14T09:28:24;100108.51;;;16.43;65.40
70916;BME280;58557;50.982;-3.222;2022-09-14T09:30:47;100113.49;;;17.38;62.46
70916;BME280;58557;50.982;-3.222;2022-09-14T09:33:15;100115.05;;;17.79;59.69
70916;BME280;58557;50.982;-3.222;2022-09-14T09:35:38;100118.58;;;17.74;59.04
70916;BME280;58557;50.982;-3.222;2022-09-14T09:38:13;100118.31;;;16.27;63.08
70916;BME280;58557;50.982;-3.222;2022-09-14T09:40:34;100116.41;;;17.05;61.77
70916;BME280;58557;50.982;-3.222;2022-09-14T09:43:06;100112.01;;;16.89;61.47
70916;BME280;58557;50.982;-3.222;2022-09-14T09:45:21;100108.88;;;16.88;59.37
70916;BME280;58557;50.982;-3.222;2022-09-14T09:47:47;100115.61;;;16.76;61.23
70916;BME280;58557;50.982;-3.222;2022-09-14T09:50:17;100110.54;;;16.78;61.00
70916;BME280;58557;50.982;-3.222;2022-09-14T09:52:38;100112.50;;;17.72;59.85
70916;BME280;58557;50.982;-3.222;2022-09-14T09:55:04;100113.78;;;17.28;60.33
70916;BME280;58557;50.982;-3.222;2022-09-14T09:57:30;100114.14;;;17.78;60.35
70916;BME280;58557;50.982;-3.222;2022-09-14T10:00:16;100110.63;;;18.00;59.33
70916;BME280;58557;50.982;-3.222;2022-09-14T10:02:24;100109.89;;;18.36;58.54
70916;BME280;58557;50.982;-3.222;2022-09-14T10:04:56;100113.02;;;17.96;58.59
70916;BME280;58557;50.982;-3.222;2022-09-14T10:07:21;100104.43;;;18.16;57.04
70916;BME280;58557;50.982;-3.222;2022-09-14T10:09:41;100104.05;;;18.33;58.39
70916;BME280;58557;50.982;-3.222;2022-09-14T10:12:08;100100.02;;;18.83;57.93
70916;BME280;58557;50.982;-3.222;2022-09-14T10:14:33;100095.01;;;19.12;55.13
70916;BME280;58557;50.982;-3.222;2022-09-14T10:17:03;100090.63;;;20.05;54.37
70916;BME280;58557;50.982;-3.222;2022-09-14T10:19:21;100094.67;;;19.72;54.01
70916;BME280;58557;50.982;-3.222;2022-09-14T10:24:15;100095.61;;;18.22;58.15
70916;BME280;58557;50.982;-3.222;2022-09-14T10:26:35;100097.95;;;18.57;57.05
70916;BME280;58557;50.982;-3.222;2022-09-14T10:31:29;100096.11;;;19.18;56.42
70916;BME280;58557;50.982;-3.222;2022-09-14T10:33:52;100097.23;;;19.05;55.29
70916;BME280;58557;50.982;-3.222;2022-09-14T10:36:20;100093.85;;;18.73;56.08
70916;BME280;58557;50.982;-3.222;2022-09-14T10:38:45;100100.02;;;19.61;55.30
70916;BME280;58557;50.982;-3.222;2022-09-14T10:41:19;100098.88;;;20.91;53.32
70916;BME280;58557;50.982;-3.222;2022-09-14T10:43:42;100103.51;;;20.28;51.50
70916;BME280;58557;50.982;-3.222;2022-09-14T10:46:01;100103.47;;;19.50;53.13
70916;BME280;58557;50.982;-3.222;2022-09-14T10:50:57;100102.73;;;19.58;53.70
70916;BME280;58557;50.982;-3.222;2022-09-14T10:55:42;100102.50;;;19.08;52.71
70916;BME280;58557;50.982;-3.222;2022-09-14T10:58:19;100101.45;;;19.14;53.92
70916;BME280;58557;50.982;-3.222;2022-09-14T11:00:37;100105.65;;;18.06;56.19
70916;BME280;58557;50.982;-3.222;2022-09-14T11:03:05;100107.28;;;18.69;55.56
70916;BME280;58557;50.982;-3.222;2022-09-14T11:05:26;100099.18;;;19.56;53.80
70916;BME280;58557;50.982;-3.222;2022-09-14T11:08:01;100098.39;;;19.92;52.46
70916;BME280;58557;50.982;-3.222;2022-09-14T11:10:18;100099.16;;;20.04;51.35
70916;BME280;58557;50.982;-3.222;2022-09-14T11:12:48;100097.87;;;20.62;51.51
70916;BME280;58557;50.982;-3.222;2022-09-14T11:15:10;100103.22;;;20.50;50.71
70916;BME280;58557;50.982;-3.222;2022-09-14T11:17:38;100108.89;;;20.32;51.02
70916;BME280;58557;50.982;-3.222;2022-09-14T11:20:01;100111.77;;;21.23;49.58
70916;BME280;58557;50.982;-3.222;2022-09-14T11:22:28;100111.80;;;21.22;49.36
70916;BME280;58557;50.982;-3.222;2022-09-14T11:24:56;100110.10;;;21.84;48.37
70916;BME280;58557;50.982;-3.222;2022-09-14T11:27:23;100111.51;;;21.51;48.59
70916;BME280;58557;50.982;-3.222;2022-09-14T11:29:47;100119.40;;;19.93;52.21
70916;BME280;58557;50.982;-3.222;2022-09-14T11:32:08;100117.64;;;19.06;54.13
70916;BME280;58557;50.982;-3.222;2022-09-14T11:34:31;100121.12;;;19.16;54.98
70916;BME280;58557;50.982;-3.222;2022-09-14T11:36:57;100122.77;;;20.74;51.44
70916;BME280;58557;50.982;-3.222;2022-09-14T11:39:20;100120.92;;;20.67;50.47
70916;BME280;58557;50.982;-3.222;2022-09-14T11:41:46;100121.65;;;20.10;50.38
70916;BME280;58557;50.982;-3.222;2022-09-14T11:44:12;100117.76;;;21.18;48.47
70916;BME280;58557;50.982;-3.222;2022-09-14T11:46:36;100124.10;;;21.01;48.28
70916;BME280;58557;50.982;-3.222;2022-09-14T11:49:08;100125.66;;;21.32;48.15
70916;BME280;58557;50.982;-3.222;2022-09-14T11:51:31;100129.63;;;21.97;46.64
70916;BME280;58557;50.982;-3.222;2022-09-14T11:53:52;100125.59;;;20.99;48.12
70916;BME280;58557;50.982;-3.222;2022-09-14T11:56:22;100124.35;;;21.10;46.69
70916;BME280;58557;50.982;-3.222;2022-09-14T11:58:46;100128.74;;;21.53;47.47
70916;BME280;58557;50.982;-3.222;2022-09-14T12:03:45;100129.66;;;22.32;48.16
70916;BME280;58557;50.982;-3.222;2022-09-14T12:08:27;100123.02;;;21.49;46.88
70916;BME280;58557;50.982;-3.222;2022-09-14T12:11:00;100126.77;;;21.84;47.70
70916;BME280;58557;50.982;-3.222;2022-09-14T12:13:19;100132.67;;;21.96;45.73
70916;BME280;58557;50.982;-3.222;2022-09-14T12:15:40;100132.27;;;21.72;46.20
70916;BME280;58557;50.982;-3.222;2022-09-14T12:18:21;100135.58;;;22.88;45.72
70916;BME280;58557;50.982;-3.222;2022-09-14T12:20:41;100142.70;;;22.74;45.79
70916;BME280;58557;50.982;-3.222;2022-09-14T12:23:11;100144.54;;;21.51;45.86
70916;BME280;58557;50.982;-3.222;2022-09-14T12:25:26;100145.69;;;21.45;46.53
70916;BME280;58557;50.982;-3.222;2022-09-14T12:27:48;100149.33;;;22.30;46.37
70916;BME280;58557;50.982;-3.222;2022-09-14T12:32:40;100146.45;;;22.03;44.85
70916;BME280;58557;50.982;-3.222;2022-09-14T12:37:30;100143.01;;;22.20;44.94
70916;BME280;58557;50.982;-3.222;2022-09-14T12:40:20;100143.23;;;22.70;45.60
70916;BME280;58557;50.982;-3.222;2022-09-14T12:42:27;100139.90;;;23.21;46.61
70916;BME280;58557;50.982;-3.222;2022-09-14T12:44:46;100138.11;;;22.75;43.01
70916;BME280;58557;50.982;-3.222;2022-09-14T12:49:37;100132.21;;;24.28;41.67
70916;BME280;58557;50.982;-3.222;2022-09-14T12:52:13;100134.32;;;24.35;41.60
70916;BME280;58557;50.982;-3.222;2022-09-14T12:54:40;100134.71;;;23.86;40.21